Time;durP1;ratioP1;P1;durP2;ratioP2;P2;SDS_P1;SDS_P2;PMS_P1;PMS_P2;Temp;Humidity;BMP_temperature;BMP_pressure;BME280_temperature;BME280_humidity;BME280_pressure;Samples;Min_cycle;Max_cycle;Signal;HPM_P1;HPM_P2
2022/06/26 00:01:39;;;;;;;3.22;1.27;;;;;;;;;;5030441;28;20402;-59
2022/06/26 00:04:05;;;;;;;0.57;0.57;;;;;;;;;;5031129;28;20117;-58
2022/06/26 00:06:30;;;;;;;17.05;1.25;;;;;;;;;;5032901;28;20040;-59
2022/06/26 00:08:56;;;;;;;1.00;0.85;;;;;;;;;;5031467;28;20572;-58
2022/06/26 00:11:22;;;;;;;0.70;0.60;;;;;;;;;;5029150;28;20522;-59
2022/06/26 00:13:47;;;;;;;1.42;0.82;;;;;;;;;;5028976;28;20021;-58
2022/06/26 00:16:13;;;;;;;0.80;0.63;;;;;;;;;;5034381;28;20039;-59
2022/06/26 00:18:40;;;;;;;2.15;1.60;;;;;;;;;;5031611;28;20043;-58
2022/06/26 00:21:06;;;;;;;1.60;1.50;;;;;;;;;;5026829;28;20786;-58
2022/06/26 00:23:32;;;;;;;1999.90;999.90;;;;;;;;;;5026587;28;20145;-58
2022/06/26 00:25:57;;;;;;;45.67;42.17;;;;;;;;;;5028446;28;20048;-58
2022/06/26 00:28:23;;;;;;;3.05;1.60;;;;;;;;;;5031322;28;20043;-58
2022/06/26 00:30:48;;;;;;;2.40;1.85;;;;;;;;;;5031909;28;20599;-59
2022/06/26 00:33:13;;;;;;;2.60;1.60;;;;;;;;;;5030635;28;20030;-60
2022/06/26 00:35:39;;;;;;;2.53;1.60;;;;;;;;;;5033957;28;20040;-59
2022/06/26 00:38:04;;;;;;;1.67;1.40;;;;;;;;;;5034928;28;20642;-57
2022/06/26 00:40:30;;;;;;;2.35;1.70;;;;;;;;;;5030348;28;20024;-59
2022/06/26 00:42:55;;;;;;;2.22;1.70;;;;;;;;;;5021954;28;20068;-58
2022/06/26 00:45:21;;;;;;;3.17;2.25;;;;;;;;;;5022726;28;20565;-58
2022/06/26 00:47:46;;;;;;;4.43;2.20;;;;;;;;;;5026998;28;20032;-58
2022/06/26 00:50:12;;;;;;;2.40;2.20;;;;;;;;;;5026258;28;20033;-58
2022/06/26 00:52:40;;;;;;;2.63;2.33;;;;;;;;;;5022584;28;20048;-59
2022/06/26 00:55:06;;;;;;;3.08;2.63;;;;;;;;;;5029100;28;20033;-59
2022/06/26 00:57:34;;;;;;;4.85;3.00;;;;;;;;;;5032031;28;20025;-59
2022/06/26 01:00:00;;;;;;;4.45;3.00;;;;;;;;;;5029518;28;20624;-58
2022/06/26 01:02:26;;;;;;;3.67;3.08;;;;;;;;;;5029832;28;20046;-58
2022/06/26 01:04:51;;;;;;;4.95;3.53;;;;;;;;;;5028701;28;20095;-59
2022/06/26 01:07:16;;;;;;;3.30;3.00;;;;;;;;;;5030284;28;20064;-59
2022/06/26 01:09:42;;;;;;;3.13;2.83;;;;;;;;;;5031491;28;20028;-59
2022/06/26 01:12:08;;;;;;;4.03;2.95;;;;;;;;;;5028697;28;20186;-59
2022/06/26 01:14:34;;;;;;;4.32;3.70;;;;;;;;;;5027973;28;20525;-59
2022/06/26 01:16:59;;;;;;;4.57;3.20;;;;;;;;;;5029260;28;20129;-58
2022/06/26 01:19:25;;;;;;;3.65;2.97;;;;;;;;;;5030371;28;20502;-59
2022/06/26 01:21:51;;;;;;;5.75;3.33;;;;;;;;;;5028696;28;20026;-58
2022/06/26 01:24:16;;;;;;;3.60;3.20;;;;;;;;;;5028224;28;20061;-61
2022/06/26 01:26:42;;;;;;;4.45;3.08;;;;;;;;;;5026442;28;20383;-59
2022/06/26 01:29:07;;;;;;;7.95;2.97;;;;;;;;;;5032657;28;20643;-59
2022/06/26 01:31:34;;;;;;;4.88;3.47;;;;;;;;;;5029571;28;20045;-57
2022/06/26 01:34:02;;;;;;;3.70;3.30;;;;;;;;;;5029082;28;20072;-59
2022/06/26 01:36:27;;;;;;;3.75;3.00;;;;;;;;;;5026958;28;20075;-58
2022/06/26 01:38:53;;;;;;;3.85;3.17;;;;;;;;;;5031013;28;20040;-59
2022/06/26 01:41:18;;;;;;;3.88;3.00;;;;;;;;;;5027648;28;20021;-58
2022/06/26 01:43:43;;;;;;;4.80;3.33;;;;;;;;;;5021497;28;20040;-58
2022/06/26 01:46:09;;;;;;;4.88;3.17;;;;;;;;;;5019209;28;20045;-59
2022/06/26 01:48:37;;;;;;;3.70;3.28;;;;;;;;;;5022714;28;20129;-58
2022/06/26 01:51:03;;;;;;;4.87;3.53;;;;;;;;;;5026259;28;20116;-58
2022/06/26 01:53:29;;;;;;;3.92;3.50;;;;;;;;;;5025717;28;20116;-59
2022/06/26 01:55:55;;;;;;;4.40;3.38;;;;;;;;;;5020374;28;20033;-58
2022/06/26 01:58:21;;;;;;;3.35;3.05;;;;;;;;;;5029726;28;20057;-59
2022/06/26 02:00:47;;;;;;;4.45;3.10;;;;;;;;;;5028647;28;20074;-58
2022/06/26 02:03:16;;;;;;;3.70;3.30;;;;;;;;;;5030447;28;20033;-58
2022/06/26 02:05:42;;;;;;;4.07;3.15;;;;;;;;;;5028656;28;20021;-58
2022/06/26 02:08:07;;;;;;;6.03;3.45;;;;;;;;;;5029649;28;20036;-58
2022/06/26 02:13:36;;;;;;;4.90;3.38;;;;;;;;;;5028853;28;20091;-59
2022/06/26 02:16:02;;;;;;;1999.90;999.90;;;;;;;;;;5033655;28;20103;-59
2022/06/26 02:18:28;;;;;;;3.67;2.65;;;;;;;;;;5032730;28;20025;-59
2022/06/26 02:20:54;;;;;;;3.38;2.85;;;;;;;;;;5028633;28;20090;-59
2022/06/26 02:23:20;;;;;;;36.70;10.68;;;;;;;;;;5028419;28;20483;-60
2022/06/26 02:25:47;;;;;;;4.45;2.95;;;;;;;;;;5025047;28;20467;-60
2022/06/26 02:28:12;;;;;;;3.85;3.10;;;;;;;;;;5034284;28;20033;-60
2022/06/26 02:30:38;;;;;;;4.18;3.17;;;;;;;;;;5031020;28;20080;-59
2022/06/26 02:33:04;;;;;;;1999.90;999.90;;;;;;;;;;5028461;28;20372;-59
2022/06/26 02:35:30;;;;;;;1999.90;999.90;;;;;;;;;;5028100;28;20040;-60
2022/06/26 02:37:56;;;;;;;1999.90;999.90;;;;;;;;;;5025595;28;20044;-59
2022/06/26 02:40:23;;;;;;;1999.90;999.90;;;;;;;;;;5034262;28;20167;-60
2022/06/26 02:42:50;;;;;;;1999.90;999.90;;;;;;;;;;5024597;28;20021;-59
2022/06/26 02:45:15;;;;;;;1999.90;999.90;;;;;;;;;;5026877;28;20049;-59
2022/06/26 02:47:41;;;;;;;1999.90;999.90;;;;;;;;;;5025585;28;20029;-60
2022/06/26 02:50:08;;;;;;;1999.90;999.90;;;;;;;;;;5027395;28;20076;-59
2022/06/26 02:52:33;;;;;;;1999.90;999.90;;;;;;;;;;5026184;28;20033;-59
2022/06/26 02:55:00;;;;;;;1999.90;999.90;;;;;;;;;;5025086;28;20136;-58
2022/06/26 02:57:26;;;;;;;1999.90;999.90;;;;;;;;;;5032892;28;20387;-59
2022/06/26 02:59:52;;;;;;;731.28;201.32;;;;;;;;;;5029701;28;20119;-59
2022/06/26 03:02:17;;;;;;;3.47;3.17;;;;;;;;;;5028938;28;20017;-59
2022/06/26 03:04:42;;;;;;;5.15;3.20;;;;;;;;;;5030735;28;20534;-60
2022/06/26 03:07:08;;;;;;;4.35;3.53;;;;;;;;;;5030303;28;20119;-58
2022/06/26 03:09:33;;;;;;;4.68;3.05;;;;;;;;;;5033659;28;20029;-59
2022/06/26 03:11:59;;;;;;;3.80;3.40;;;;;;;;;;5029153;28;20075;-58
2022/06/26 03:14:24;;;;;;;4.63;3.13;;;;;;;;;;5026978;28;20033;-59
2022/06/26 03:16:49;;;;;;;3.75;3.45;;;;;;;;;;5028229;28;20028;-59
2022/06/26 03:19:15;;;;;;;5.05;3.80;;;;;;;;;;5026888;28;20487;-59
2022/06/26 03:21:40;;;;;;;5.22;3.58;;;;;;;;;;5028505;28;20033;-59
2022/06/26 03:24:06;;;;;;;4.20;3.50;;;;;;;;;;5027112;28;20021;-59
2022/06/26 03:26:35;;;;;;;7.07;3.60;;;;;;;;;;5029180;28;20110;-59
2022/06/26 03:29:02;;;;;;;5.25;3.70;;;;;;;;;;5026116;28;20022;-59
2022/06/26 03:31:27;;;;;;;5.18;3.70;;;;;;;;;;5031815;28;20063;-58
2022/06/26 03:33:54;;;;;;;4.03;3.40;;;;;;;;;;5030041;28;20045;-60
2022/06/26 03:36:20;;;;;;;5.55;3.72;;;;;;;;;;5031958;28;20025;-60
2022/06/26 03:38:46;;;;;;;4.80;3.88;;;;;;;;;;5031512;28;20025;-59
2022/06/26 03:41:12;;;;;;;4.00;3.60;;;;;;;;;;5027814;28;20481;-58
2022/06/26 03:43:37;;;;;;;4.10;3.65;;;;;;;;;;5022453;28;20033;-59
2022/06/26 03:46:03;;;;;;;3.95;3.55;;;;;;;;;;5024960;28;20096;-60
2022/06/26 03:48:29;;;;;;;4.30;3.28;;;;;;;;;;5027980;28;20037;-58
2022/06/26 03:50:54;;;;;;;7.05;3.85;;;;;;;;;;5027469;28;20029;-59
2022/06/26 03:53:19;;;;;;;8.00;3.70;;;;;;;;;;5027757;28;20049;-59
2022/06/26 03:55:45;;;;;;;6.25;3.50;;;;;;;;;;5021510;28;20087;-58
2022/06/26 03:58:10;;;;;;;4.35;3.47;;;;;;;;;;5028280;28;20071;-59
2022/06/26 04:00:36;;;;;;;4.18;3.60;;;;;;;;;;5030610;28;20436;-58
2022/06/26 04:03:05;;;;;;;4.40;4.00;;;;;;;;;;5027394;28;20440;-58
2022/06/26 04:05:32;;;;;;;4.18;3.75;;;;;;;;;;5026295;28;20036;-58
2022/06/26 04:07:58;;;;;;;6.43;3.80;;;;;;;;;;5026561;28;20025;-59
2022/06/26 04:10:23;;;;;;;3.80;3.50;;;;;;;;;;5027136;28;20052;-58
2022/06/26 04:12:49;;;;;;;10.93;3.72;;;;;;;;;;5027769;28;20029;-59
2022/06/26 04:15:14;;;;;;;5.20;3.53;;;;;;;;;;5030155;28;20026;-57
2022/06/26 04:17:39;;;;;;;5.22;4.18;;;;;;;;;;5031518;28;20029;-59
2022/06/26 04:20:06;;;;;;;4.10;3.70;;;;;;;;;;5028741;28;20065;-57
2022/06/26 04:22:31;;;;;;;4.47;3.50;;;;;;;;;;5032481;28;20024;-59
2022/06/26 04:24:57;;;;;;;4.50;4.03;;;;;;;;;;5026085;28;20033;-59
2022/06/26 04:27:22;;;;;;;4.38;3.30;;;;;;;;;;5030805;28;20029;-59
2022/06/26 04:29:48;;;;;;;5.25;3.92;;;;;;;;;;5027428;28;20725;-59
2022/06/26 04:32:13;;;;;;;4.15;3.65;;;;;;;;;;5031590;28;20032;-58
2022/06/26 04:34:38;;;;;;;4.35;3.75;;;;;;;;;;5029866;28;20039;-59
2022/06/26 04:37:04;;;;;;;7.30;3.78;;;;;;;;;;5026595;28;20034;-58
2022/06/26 04:39:30;;;;;;;5.18;4.50;;;;;;;;;;5032601;28;20418;-58
2022/06/26 04:41:56;;;;;;;5.32;3.88;;;;;;;;;;5022987;28;20032;-58
2022/06/26 04:44:22;;;;;;;4.28;3.70;;;;;;;;;;5024466;28;20506;-59
2022/06/26 04:46:48;;;;;;;4.43;3.47;;;;;;;;;;5021782;28;20033;-58
2022/06/26 04:49:13;;;;;;;4.07;3.67;;;;;;;;;;5023715;28;20037;-58
2022/06/26 04:51:39;;;;;;;4.35;3.70;;;;;;;;;;5026724;28;20033;-59
2022/06/26 04:54:07;;;;;;;6.43;3.85;;;;;;;;;;5028765;28;20501;-59
2022/06/26 04:56:32;;;;;;;7.82;3.83;;;;;;;;;;5029560;28;20113;-58
2022/06/26 04:58:58;;;;;;;5.25;3.70;;;;;;;;;;5030235;28;20179;-59
2022/06/26 05:01:25;;;;;;;4.28;3.70;;;;;;;;;;5028245;28;20029;-58
2022/06/26 05:03:50;;;;;;;4.07;3.67;;;;;;;;;;5023239;28;20033;-60
2022/06/26 05:06:16;;;;;;;5.10;3.40;;;;;;;;;;5030123;28;20445;-59
2022/06/26 05:08:41;;;;;;;4.75;4.05;;;;;;;;;;5024931;28;20041;-59
2022/06/26 05:11:07;;;;;;;7.13;4.00;;;;;;;;;;5029886;28;20609;-58
2022/06/26 05:13:33;;;;;;;5.07;3.72;;;;;;;;;;5031977;28;20033;-59
2022/06/26 05:15:58;;;;;;;4.30;3.90;;;;;;;;;;5026810;28;20078;-59
2022/06/26 05:18:24;;;;;;;4.15;3.75;;;;;;;;;;5026846;28;20045;-59
2022/06/26 05:20:50;;;;;;;4.93;3.83;;;;;;;;;;5025738;28;20017;-59
2022/06/26 05:23:15;;;;;;;4.93;3.58;;;;;;;;;;5027300;28;20099;-58
2022/06/26 05:25:42;;;;;;;4.03;3.63;;;;;;;;;;5030956;28;20487;-59
2022/06/26 05:28:08;;;;;;;5.47;3.58;;;;;;;;;;5024410;28;20037;-58
2022/06/26 05:30:34;;;;;;;4.30;3.63;;;;;;;;;;5020287;28;20026;-57
2022/06/26 05:32:59;;;;;;;4.55;3.65;;;;;;;;;;5027575;28;20033;-58
2022/06/26 05:35:25;;;;;;;5.65;3.60;;;;;;;;;;5025678;28;20030;-59
2022/06/26 05:37:50;;;;;;;4.35;3.50;;;;;;;;;;5025998;28;20026;-59
2022/06/26 05:40:16;;;;;;;4.10;3.67;;;;;;;;;;5027732;28;20044;-58
2022/06/26 05:42:42;;;;;;;5.03;4.00;;;;;;;;;;5022458;28;20025;-58
2022/06/26 05:45:08;;;;;;;4.90;3.50;;;;;;;;;;5022552;28;20479;-58
2022/06/26 05:47:33;;;;;;;7.82;3.72;;;;;;;;;;5027568;28;20105;-58
2022/06/26 05:49:59;;;;;;;4.50;3.67;;;;;;;;;;5027298;28;20453;-61
2022/06/26 05:52:24;;;;;;;4.30;3.55;;;;;;;;;;5024495;28;20447;-59
2022/06/26 05:54:50;;;;;;;3.80;3.50;;;;;;;;;;5029913;28;20022;-57
2022/06/26 05:57:16;;;;;;;5.60;3.90;;;;;;;;;;5029348;28;20403;-59
2022/06/26 05:59:41;;;;;;;5.55;3.40;;;;;;;;;;5030861;28;20033;-59
2022/06/26 06:02:07;;;;;;;4.15;3.55;;;;;;;;;;5031150;28;20064;-60
2022/06/26 06:04:33;;;;;;;6.78;5.30;;;;;;;;;;5031925;28;20504;-60
2022/06/26 06:06:58;;;;;;;8.65;5.93;;;;;;;;;;5033089;28;20029;-59
2022/06/26 06:09:24;;;;;;;6.65;5.18;;;;;;;;;;5027800;28;20052;-59
2022/06/26 06:11:49;;;;;;;8.35;6.35;;;;;;;;;;5030910;28;20037;-60
2022/06/26 06:14:15;;;;;;;7.57;5.82;;;;;;;;;;5032331;28;20028;-60
2022/06/26 06:16:40;;;;;;;9.00;5.80;;;;;;;;;;5031483;28;20056;-59
2022/06/26 06:19:06;;;;;;;5.70;4.60;;;;;;;;;;5032299;28;20063;-60
2022/06/26 06:21:31;;;;;;;4.30;3.50;;;;;;;;;;5034963;28;20029;-60
2022/06/26 06:23:56;;;;;;;4.30;3.80;;;;;;;;;;5032765;28;20037;-60
2022/06/26 06:26:23;;;;;;;3.80;3.47;;;;;;;;;;5036269;28;20033;-60
2022/06/26 06:28:49;;;;;;;4.70;3.90;;;;;;;;;;5033805;28;20056;-59
2022/06/26 06:31:14;;;;;;;4.43;3.78;;;;;;;;;;5024542;28;20487;-59
2022/06/26 06:33:39;;;;;;;6.68;5.70;;;;;;;;;;5032642;28;20037;-60
2022/06/26 06:36:05;;;;;;;9.20;6.10;;;;;;;;;;5024367;28;20021;-59
2022/06/26 06:38:30;;;;;;;10.35;6.22;;;;;;;;;;5030098;28;20037;-59
2022/06/26 06:40:56;;;;;;;14.95;9.75;;;;;;;;;;5025246;28;20408;-58
2022/06/26 06:43:21;;;;;;;6.90;5.72;;;;;;;;;;5024287;28;20113;-58
2022/06/26 06:45:46;;;;;;;6.05;4.70;;;;;;;;;;5023480;28;20029;-58
2022/06/26 06:48:12;;;;;;;5.35;4.18;;;;;;;;;;5028478;28;20027;-57
2022/06/26 06:50:37;;;;;;;4.50;4.10;;;;;;;;;;5028283;28;20037;-58
2022/06/26 06:53:03;;;;;;;4.82;3.83;;;;;;;;;;5030443;28;20033;-58
2022/06/26 06:55:29;;;;;;;5.32;3.97;;;;;;;;;;5033432;28;20033;-59
2022/06/26 06:57:54;;;;;;;4.63;3.90;;;;;;;;;;5031887;28;20042;-58
2022/06/26 07:00:19;;;;;;;5.63;3.60;;;;;;;;;;5031699;28;20029;-58
2022/06/26 07:02:45;;;;;;;4.57;3.05;;;;;;;;;;5029298;28;20032;-59
2022/06/26 07:05:10;;;;;;;7.57;3.13;;;;;;;;;;5031088;28;20052;-59
2022/06/26 07:07:36;;;;;;;3.67;3.38;;;;;;;;;;5030480;28;20056;-59
2022/06/26 07:10:03;;;;;;;5.40;3.33;;;;;;;;;;5026726;28;20370;-60
2022/06/26 07:12:29;;;;;;;4.38;3.20;;;;;;;;;;5029213;28;20045;-58
2022/06/26 07:14:54;;;;;;;4.75;3.85;;;;;;;;;;5032238;28;20060;-59
2022/06/26 07:17:22;;;;;;;4.50;3.92;;;;;;;;;;5029806;28;20026;-59
2022/06/26 07:19:47;;;;;;;4.70;4.03;;;;;;;;;;5029075;28;20021;-59
2022/06/26 07:22:13;;;;;;;5.68;3.45;;;;;;;;;;5026301;28;20029;-59
2022/06/26 07:24:39;;;;;;;4.20;3.78;;;;;;;;;;5027701;28;20033;-59
2022/06/26 07:27:05;;;;;;;4.60;3.50;;;;;;;;;;5029256;28;20815;-60
2022/06/26 07:29:30;;;;;;;6.70;4.20;;;;;;;;;;5030396;28;20029;-59
2022/06/26 07:31:56;;;;;;;4.28;3.70;;;;;;;;;;5022004;28;20599;-60
2022/06/26 07:34:23;;;;;;;6.00;4.90;;;;;;;;;;5024915;28;20064;-60
2022/06/26 07:36:50;;;;;;;6.60;5.30;;;;;;;;;;5034238;28;20025;-59
2022/06/26 07:39:19;;;;;;;6.55;4.22;;;;;;;;;;5024144;28;20025;-59
2022/06/26 07:41:45;;;;;;;4.97;4.32;;;;;;;;;;5021368;28;20104;-60
2022/06/26 07:44:11;;;;;;;3.95;3.55;;;;;;;;;;5020757;28;20523;-60
2022/06/26 07:46:38;;;;;;;4.20;3.17;;;;;;;;;;5030016;28;20051;-60
2022/06/26 07:49:05;;;;;;;3.70;3.17;;;;;;;;;;5025144;28;20116;-59
2022/06/26 07:51:31;;;;;;;3.70;3.28;;;;;;;;;;5023666;28;20507;-60
2022/06/26 07:53:56;;;;;;;3.40;3.10;;;;;;;;;;5027945;28;20511;-59
2022/06/26 07:56:22;;;;;;;4.80;3.13;;;;;;;;;;5032995;28;20183;-60
2022/06/26 07:58:48;;;;;;;3.90;3.17;;;;;;;;;;5028188;28;20033;-60
2022/06/26 08:01:14;;;;;;;4.45;3.17;;;;;;;;;;5027455;28;20037;-59
2022/06/26 08:03:39;;;;;;;4.05;3.65;;;;;;;;;;5027502;28;20026;-59
2022/06/26 08:06:05;;;;;;;3.85;3.05;;;;;;;;;;5032079;28;20173;-59
2022/06/26 08:08:30;;;;;;;3.45;3.15;;;;;;;;;;5033303;28;20032;-59
2022/06/26 08:10:56;;;;;;;3.90;3.20;;;;;;;;;;5030690;28;20503;-60
2022/06/26 08:13:21;;;;;;;6.15;3.75;;;;;;;;;;5029525;28;20026;-59
2022/06/26 08:15:46;;;;;;;3.38;2.92;;;;;;;;;;5030595;28;20142;-59
2022/06/26 08:18:12;;;;;;;5.22;2.75;;;;;;;;;;5037676;28;20033;-59
2022/06/26 08:20:38;;;;;;;3.03;2.83;;;;;;;;;;5030757;28;20025;-59
2022/06/26 08:23:03;;;;;;;3.88;3.47;;;;;;;;;;5027468;28;20017;-59
2022/06/26 08:25:29;;;;;;;5.80;3.55;;;;;;;;;;5020112;28;20124;-59
2022/06/26 08:27:54;;;;;;;4.25;3.42;;;;;;;;;;5035541;28;20479;-60
2022/06/26 08:30:20;;;;;;;5.72;3.38;;;;;;;;;;5025969;28;20067;-59
2022/06/26 08:32:46;;;;;;;4.10;3.00;;;;;;;;;;5032123;28;20518;-60
2022/06/26 08:35:12;;;;;;;3.72;3.35;;;;;;;;;;5033689;28;20436;-59
2022/06/26 08:37:38;;;;;;;5.25;3.78;;;;;;;;;;5023071;28;20056;-59
2022/06/26 08:40:04;;;;;;;4.68;3.83;;;;;;;;;;5027629;28;20025;-60
2022/06/26 08:42:31;;;;;;;5.30;3.45;;;;;;;;;;5021614;28;20029;-60
2022/06/26 08:44:58;;;;;;;5.53;4.20;;;;;;;;;;5020165;28;20253;-60
2022/06/26 08:47:25;;;;;;;5.03;3.38;;;;;;;;;;5025098;28;20030;-60
2022/06/26 08:49:51;;;;;;;3.83;3.30;;;;;;;;;;5027176;28;20030;-60
2022/06/26 08:52:20;;;;;;;3.65;3.33;;;;;;;;;;5030031;28;20025;-59
2022/06/26 08:54:46;;;;;;;5.05;3.20;;;;;;;;;;5026630;28;20393;-59
2022/06/26 08:57:13;;;;;;;3.65;3.33;;;;;;;;;;5031115;28;20563;-60
2022/06/26 08:59:39;;;;;;;3.95;3.55;;;;;;;;;;5027684;28;20045;-59
2022/06/26 09:02:05;;;;;;;3.78;3.33;;;;;;;;;;5030210;28;20414;-59
2022/06/26 09:04:30;;;;;;;4.07;3.30;;;;;;;;;;5025323;28;20033;-59
2022/06/26 09:06:56;;;;;;;5.63;3.72;;;;;;;;;;5028802;28;20032;-60
2022/06/26 09:09:27;;;;;;;5.20;4.00;;;;;;;;;;5027791;28;20025;-58
2022/06/26 09:11:59;;;;;;;5.18;4.03;;;;;;;;;;5022754;28;20025;-61
2022/06/26 09:14:25;;;;;;;6.97;3.75;;;;;;;;;;5023084;28;20064;-60
2022/06/26 09:16:52;;;;;;;6.88;3.30;;;;;;;;;;5028456;28;20112;-60
2022/06/26 09:19:23;;;;;;;3.40;3.10;;;;;;;;;;5026696;28;20059;-59
2022/06/26 09:21:50;;;;;;;5.28;3.50;;;;;;;;;;5031289;28;20096;-59
2022/06/26 09:24:20;;;;;;;3.90;3.50;;;;;;;;;;5020195;28;20080;-60
2022/06/26 09:27:02;;;;;;;4.72;3.03;;;;;;;;;;5034332;28;20028;-59
2022/06/26 09:29:27;;;;;;;3.30;3.00;;;;;;;;;;5026604;28;20545;-58
2022/06/26 09:31:53;;;;;;;3.03;2.72;;;;;;;;;;5029403;28;20037;-59
2022/06/26 09:34:25;;;;;;;3.78;3.42;;;;;;;;;;5022419;28;20034;-59
2022/06/26 09:36:58;;;;;;;3.88;3.47;;;;;;;;;;5023671;28;20083;-60
2022/06/26 09:39:25;;;;;;;4.20;3.30;;;;;;;;;;5028776;28;20029;-60
2022/06/26 09:41:51;;;;;;;5.18;4.20;;;;;;;;;;5024833;28;20112;-59
2022/06/26 09:44:20;;;;;;;4.07;3.58;;;;;;;;;;5030142;28;20480;-60
2022/06/26 09:46:46;;;;;;;;;;;;;;;;;;5029052;28;20021;-60
2022/06/26 09:49:11;;;;;;;3.45;3.15;;;;;;;;;;5033264;28;19920;-61
2022/06/26 09:51:37;;;;;;;4.60;3.15;;;;;;;;;;5032204;28;20029;-59
2022/06/26 09:54:04;;;;;;;5.30;4.18;;;;;;;;;;5033358;28;20025;-59
2022/06/26 09:56:31;;;;;;;3.30;3.00;;;;;;;;;;5033405;28;20029;-59
2022/06/26 09:58:59;;;;;;;6.25;3.53;;;;;;;;;;5029688;28;20435;-60
2022/06/26 10:07:00;;;;;;;;;;;;;;;;;;5027261;28;20049;-62
2022/06/26 10:09:27;;;;;;;3.45;3.15;;;;;;;;;;5030586;28;19917;-61
2022/06/26 10:11:55;;;;;;;3.00;2.80;;;;;;;;;;5029828;28;20045;-61
2022/06/26 10:14:33;;;;;;;3.15;2.85;;;;;;;;;;5036026;28;20025;-60
2022/06/26 10:17:13;;;;;;;3.50;2.80;;;;;;;;;;5025898;28;20071;-59
2022/06/26 10:19:45;;;;;;;4.72;2.90;;;;;;;;;;5026663;28;20113;-60
2022/06/26 10:22:12;;;;;;;3.65;2.90;;;;;;;;;;5036138;28;20487;-60
2022/06/26 10:24:51;;;;;;;5.18;2.97;;;;;;;;;;5030612;28;20068;-60
2022/06/26 10:27:23;;;;;;;5.18;2.70;;;;;;;;;;5022630;28;20116;-60
2022/06/26 10:29:48;;;;;;;3.30;2.30;;;;;;;;;;5028891;28;20021;-62
2022/06/26 10:32:22;;;;;;;264.42;28.33;;;;;;;;;;5029449;28;20082;-60
2022/06/26 10:34:55;;;;;;;3.72;2.63;;;;;;;;;;5031407;28;20021;-60
2022/06/26 10:37:20;;;;;;;3.95;2.55;;;;;;;;;;5024721;28;20057;-60
2022/06/26 10:39:49;;;;;;;4.47;2.70;;;;;;;;;;5029249;28;20164;-61
2022/06/26 10:45:29;;;;;;;3.55;2.20;;;;;;;;;;5022627;28;20052;-60
2022/06/26 10:47:58;;;;;;;4.75;2.67;;;;;;;;;;5024138;28;20120;-61
2022/06/26 10:50:23;;;;;;;;;;;;;;;;;;5031090;28;20029;-61
2022/06/26 10:52:49;;;;;;;3.20;2.50;;;;;;;;;;5029562;28;20011;-61
2022/06/26 10:55:14;;;;;;;3.65;2.30;;;;;;;;;;5029354;28;20344;-60
2022/06/26 10:57:39;;;;;;;2.60;2.40;;;;;;;;;;5029102;28;20030;-59
2022/06/26 11:00:14;;;;;;;3.13;2.80;;;;;;;;;;5029291;28;20052;-60
2022/06/26 11:02:44;;;;;;;3.28;2.50;;;;;;;;;;5027367;28;20030;-60
2022/06/26 11:05:10;;;;;;;3.88;2.53;;;;;;;;;;5031463;28;20029;-60
2022/06/26 11:07:44;;;;;;;4.55;2.65;;;;;;;;;;5032060;28;20029;-60
2022/06/26 11:10:18;;;;;;;2.28;2.08;;;;;;;;;;5028996;28;20437;-61
2022/06/26 11:12:52;;;;;;;2.78;2.58;;;;;;;;;;5027427;28;20665;-61
2022/06/26 11:15:20;;;;;;;4.00;2.58;;;;;;;;;;5021363;28;20092;-61
2022/06/26 11:17:54;;;;;;;4.35;2.55;;;;;;;;;;5027753;28;20029;-61
2022/06/26 11:23:15;;;;;;;2.67;2.45;;;;;;;;;;5026560;28;20051;-60
2022/06/26 11:25:43;;;;;;;2.90;2.67;;;;;;;;;;5024733;28;20521;-60
2022/06/26 11:28:09;;;;;;;3.53;2.30;;;;;;;;;;5033167;28;20041;-60
2022/06/26 11:30:39;;;;;;;3.10;2.20;;;;;;;;;;5027770;28;20039;-59
2022/06/26 11:33:06;;;;;;;2.58;2.38;;;;;;;;;;5027727;28;20045;-60
2022/06/26 11:35:34;;;;;;;3.20;2.60;;;;;;;;;;5023539;28;20025;-60
2022/06/26 11:38:08;;;;;;;3.40;2.47;;;;;;;;;;5029039;28;20032;-60
2022/06/26 11:40:34;;;;;;;4.85;2.55;;;;;;;;;;5029236;28;20053;-60
2022/06/26 11:42:59;;;;;;;2.50;2.30;;;;;;;;;;5024505;28;20510;-59
2022/06/26 11:45:26;;;;;;;4.57;3.33;;;;;;;;;;5029452;28;20517;-60
2022/06/26 11:47:52;;;;;;;3.22;2.53;;;;;;;;;;5028513;28;20031;-62
2022/06/26 11:50:23;;;;;;;2.85;2.22;;;;;;;;;;5029431;28;20096;-60
2022/06/26 11:52:53;;;;;;;2.65;2.40;;;;;;;;;;5031165;28;20055;-60
2022/06/26 11:55:19;;;;;;;3.00;2.53;;;;;;;;;;5023903;28;20403;-60
2022/06/26 11:57:45;;;;;;;2.60;2.40;;;;;;;;;;5030155;28;20033;-60
2022/06/26 12:00:12;;;;;;;2.78;2.30;;;;;;;;;;5030067;28;20036;-61
2022/06/26 12:02:43;;;;;;;2.47;2.28;;;;;;;;;;5026141;28;20029;-61
2022/06/26 12:05:09;;;;;;;2.60;2.30;;;;;;;;;;5027507;28;20479;-61
2022/06/26 12:07:45;;;;;;;4.53;2.10;;;;;;;;;;5032245;28;20025;-60
2022/06/26 12:10:11;;;;;;;2.83;2.53;;;;;;;;;;5036316;28;20032;-60
2022/06/26 12:12:48;;;;;;;4.28;2.28;;;;;;;;;;5025871;28;20413;-60
2022/06/26 12:15:15;;;;;;;2.92;2.20;;;;;;;;;;5028346;28;20051;-60
2022/06/26 12:17:42;;;;;;;3.28;2.10;;;;;;;;;;5027991;28;20025;-60
2022/06/26 12:20:10;;;;;;;2.83;2.05;;;;;;;;;;5030542;28;20320;-61
2022/06/26 12:22:35;;;;;;;5.50;2.15;;;;;;;;;;5026897;28;20025;-61
2022/06/26 12:25:02;;;;;;;3.22;2.10;;;;;;;;;;5029425;28;20090;-61
2022/06/26 12:27:39;;;;;;;2.95;2.20;;;;;;;;;;5028459;28;20040;-61
2022/06/26 12:30:18;;;;;;;4.57;2.28;;;;;;;;;;5026226;28;20037;-60
2022/06/26 12:32:43;;;;;;;2.53;2.25;;;;;;;;;;5021592;28;20478;-60
2022/06/26 12:35:09;;;;;;;2.60;2.40;;;;;;;;;;5025988;28;20065;-60
2022/06/26 12:37:34;;;;;;;2.15;1.90;;;;;;;;;;5029149;28;20044;-62
2022/06/26 12:39:59;;;;;;;3.47;2.10;;;;;;;;;;5025476;28;20017;-60
2022/06/26 12:42:25;;;;;;;3.80;2.20;;;;;;;;;;5023827;28;20080;-60
2022/06/26 12:44:50;;;;;;;2.50;2.30;;;;;;;;;;5019905;28;20018;-61
2022/06/26 12:47:16;;;;;;;2.40;2.20;;;;;;;;;;5028024;28;20041;-60
2022/06/26 12:49:41;;;;;;;4.07;2.00;;;;;;;;;;5028664;28;20048;-60
2022/06/26 12:52:07;;;;;;;3.40;1.95;;;;;;;;;;5027017;28;20479;-60
2022/06/26 12:54:33;;;;;;;2.70;2.10;;;;;;;;;;5029781;28;20091;-60
2022/06/26 12:56:58;;;;;;;2.97;1.90;;;;;;;;;;5031061;28;20033;-60
2022/06/26 12:59:24;;;;;;;3.08;2.00;;;;;;;;;;5032236;28;20402;-60
2022/06/26 13:01:49;;;;;;;2.35;2.15;;;;;;;;;;5024997;28;20414;-59
2022/06/26 13:04:15;;;;;;;2.53;1.90;;;;;;;;;;5029508;28;20025;-59
2022/06/26 13:06:40;;;;;;;2.40;1.95;;;;;;;;;;5025479;28;20121;-60
2022/06/26 13:09:06;;;;;;;2.13;1.98;;;;;;;;;;5025150;28;20029;-60
2022/06/26 13:11:32;;;;;;;3.10;2.20;;;;;;;;;;5023916;28;20029;-59
2022/06/26 13:13:57;;;;;;;3.47;2.80;;;;;;;;;;5024109;28;20514;-60
2022/06/26 13:16:23;;;;;;;2.47;2.28;;;;;;;;;;5024303;28;20028;-60
2022/06/26 13:18:48;;;;;;;2.60;1.98;;;;;;;;;;5030281;28;20037;-60
2022/06/26 13:21:14;;;;;;;3.58;1.98;;;;;;;;;;5034026;28;20028;-60
2022/06/26 13:23:39;;;;;;;2.90;2.00;;;;;;;;;;5026383;28;20048;-60
2022/06/26 13:26:05;;;;;;;2.53;2.30;;;;;;;;;;5032709;28;20515;-61
2022/06/26 13:28:30;;;;;;;2.50;2.30;;;;;;;;;;5033172;28;20037;-60
2022/06/26 13:30:56;;;;;;;2.53;2.03;;;;;;;;;;5028919;28;20026;-59
2022/06/26 13:33:23;;;;;;;2.90;2.25;;;;;;;;;;5022384;28;20778;-59
2022/06/26 13:35:49;;;;;;;4.40;2.40;;;;;;;;;;5022052;28;20017;-59
2022/06/26 13:38:15;;;;;;;3.15;2.20;;;;;;;;;;5027278;28;20079;-60
2022/06/26 13:40:40;;;;;;;4.22;2.13;;;;;;;;;;5025999;28;20514;-59
2022/06/26 13:43:05;;;;;;;2.78;2.30;;;;;;;;;;5028772;28;20117;-59
2022/06/26 13:45:31;;;;;;;3.35;2.05;;;;;;;;;;5027320;28;20682;-60
2022/06/26 13:47:56;;;;;;;2.58;2.20;;;;;;;;;;5030024;28;20079;-59
2022/06/26 13:50:22;;;;;;;2.10;1.90;;;;;;;;;;5027775;28;20029;-59
2022/06/26 13:52:47;;;;;;;2.70;1.98;;;;;;;;;;5026316;28;20097;-58
2022/06/26 13:55:12;;;;;;;2.10;1.88;;;;;;;;;;5026350;28;20033;-60
2022/06/26 13:57:38;;;;;;;2.38;2.10;;;;;;;;;;5024783;28;20527;-60
2022/06/26 14:00:05;;;;;;;3.10;2.10;;;;;;;;;;5028489;28;20053;-60
2022/06/26 14:02:31;;;;;;;3.03;2.72;;;;;;;;;;5025582;28;20071;-61
2022/06/26 14:04:57;;;;;;;4.25;2.47;;;;;;;;;;5027180;28;20033;-61
2022/06/26 14:07:23;;;;;;;2.28;2.05;;;;;;;;;;5023755;28;20030;-59
2022/06/26 14:09:48;;;;;;;2.38;2.13;;;;;;;;;;5029428;28;20033;-59
2022/06/26 14:12:14;;;;;;;2.85;2.28;;;;;;;;;;5037697;28;20025;-59
2022/06/26 14:14:39;;;;;;;2.45;2.17;;;;;;;;;;5029181;28;20052;-60
2022/06/26 14:17:05;;;;;;;2.30;2.10;;;;;;;;;;5027217;28;20041;-60
2022/06/26 14:19:30;;;;;;;2.30;2.10;;;;;;;;;;5025040;28;20558;-61
2022/06/26 14:27:24;;;;;;;2.53;2.22;;;;;;;;;;5021221;28;20037;-60
2022/06/26 14:29:49;;;;;;;2.55;2.22;;;;;;;;;;5031688;28;20107;-60
2022/06/26 14:32:15;;;;;;;2.65;2.20;;;;;;;;;;5020768;28;20106;-60
2022/06/26 14:34:41;;;;;;;2.92;2.20;;;;;;;;;;5021344;28;20026;-60
2022/06/26 14:37:07;;;;;;;2.30;2.10;;;;;;;;;;5023175;28;20033;-60
2022/06/26 14:39:33;;;;;;;2.30;2.10;;;;;;;;;;5026653;28;20081;-60
2022/06/26 14:41:58;;;;;;;4.63;2.20;;;;;;;;;;5026860;28;20033;-60
2022/06/26 14:44:24;;;;;;;2.45;2.25;;;;;;;;;;5029250;28;20034;-60
2022/06/26 14:46:50;;;;;;;2.20;2.00;;;;;;;;;;5032080;28;20045;-60
2022/06/26 14:49:15;;;;;;;2.50;2.30;;;;;;;;;;5034771;28;20033;-61
2022/06/26 14:51:41;;;;;;;4.25;2.47;;;;;;;;;;5028024;28;20118;-59
2022/06/26 14:54:06;;;;;;;3.45;2.00;;;;;;;;;;5029241;28;20026;-59
2022/06/26 14:56:32;;;;;;;2.83;2.28;;;;;;;;;;5022332;28;20034;-60